sensor_id;sensor_type;location;lat;lon;timestamp;temperature;humidity
28530;DHT22;15737;49.760;6.632;2022-08-01T00:00:40;20.60;93.10
28530;DHT22;15737;49.760;6.632;2022-08-01T00:03:06;20.70;93.10
28530;DHT22;15737;49.760;6.632;2022-08-01T00:05:31;20.50;93.10
28530;DHT22;15737;49.760;6.632;2022-08-01T00:07:57;20.40;93.70
28530;DHT22;15737;49.760;6.632;2022-08-01T00:10:23;20.40;93.90
28530;DHT22;15737;49.760;6.632;2022-08-01T00:12:49;20.20;94.30
28530;DHT22;15737;49.760;6.632;2022-08-01T00:15:16;20.10;94.70
28530;DHT22;15737;49.760;6.632;2022-08-01T00:17:42;20.10;94.80
28530;DHT22;15737;49.760;6.632;2022-08-01T00:20:11;20.00;95.40
28530;DHT22;15737;49.760;6.632;2022-08-01T00:22:38;19.90;95.40
28530;DHT22;15737;49.760;6.632;2022-08-01T00:25:04;19.90;96.00
28530;DHT22;15737;49.760;6.632;2022-08-01T00:27:30;19.90;96.40
28530;DHT22;15737;49.760;6.632;2022-08-01T00:29:57;19.90;96.70
28530;DHT22;15737;49.760;6.632;2022-08-01T00:32:22;19.80;97.10
28530;DHT22;15737;49.760;6.632;2022-08-01T00:34:48;19.70;97.30
28530;DHT22;15737;49.760;6.632;2022-08-01T00:37:13;19.70;97.90
28530;DHT22;15737;49.760;6.632;2022-08-01T00:39:39;19.60;98.30
28530;DHT22;15737;49.760;6.632;2022-08-01T00:42:11;19.50;98.30
28530;DHT22;15737;49.760;6.632;2022-08-01T00:44:38;19.40;98.70
28530;DHT22;15737;49.760;6.632;2022-08-01T00:47:04;19.30;99.30
28530;DHT22;15737;49.760;6.632;2022-08-01T00:49:30;19.20;99.90
28530;DHT22;15737;49.760;6.632;2022-08-01T00:51:56;19.10;99.90
28530;DHT22;15737;49.760;6.632;2022-08-01T00:54:24;19.00;99.90
28530;DHT22;15737;49.760;6.632;2022-08-01T00:56:49;18.90;99.90
28530;DHT22;15737;49.760;6.632;2022-08-01T00:59:17;18.90;99.90
28530;DHT22;15737;49.760;6.632;2022-08-01T01:01:43;18.90;99.90
28530;DHT22;15737;49.760;6.632;2022-08-01T01:04:08;18.80;99.90
28530;DHT22;15737;49.760;6.632;2022-08-01T01:12:02;18.90;99.90
28530;DHT22;15737;49.760;6.632;2022-08-01T01:14:37;18.80;99.90
28530;DHT22;15737;49.760;6.632;2022-08-01T01:17:08;18.80;99.90
28530;DHT22;15737;49.760;6.632;2022-08-01T01:19:41;18.80;99.90
28530;DHT22;15737;49.760;6.632;2022-08-01T01:22:24;18.80;99.90
28530;DHT22;15737;49.760;6.632;2022-08-01T01:25:23;18.70;99.90
28530;DHT22;15737;49.760;6.632;2022-08-01T01:28:10;18.70;99.90
28530;DHT22;15737;49.760;6.632;2022-08-01T01:30:38;18.60;99.90
28530;DHT22;15737;49.760;6.632;2022-08-01T01:33:06;18.50;99.90
28530;DHT22;15737;49.760;6.632;2022-08-01T01:35:37;18.40;99.90
28530;DHT22;15737;49.760;6.632;2022-08-01T01:38:21;18.30;99.90
28530;DHT22;15737;49.760;6.632;2022-08-01T01:40:49;18.20;99.90
28530;DHT22;15737;49.760;6.632;2022-08-01T01:43:17;18.20;99.90
28530;DHT22;15737;49.760;6.632;2022-08-01T01:45:45;18.10;99.90
28530;DHT22;15737;49.760;6.632;2022-08-01T01:48:18;18.10;99.90
28530;DHT22;15737;49.760;6.632;2022-08-01T01:50:47;18.00;99.90
28530;DHT22;15737;49.760;6.632;2022-08-01T01:53:14;18.00;99.90
28530;DHT22;15737;49.760;6.632;2022-08-01T01:55:41;18.00;99.90
28530;DHT22;15737;49.760;6.632;2022-08-01T01:58:12;17.90;99.90
28530;DHT22;15737;49.760;6.632;2022-08-01T02:00:39;17.90;99.90
28530;DHT22;15737;49.760;6.632;2022-08-01T02:03:07;17.80;99.90
28530;DHT22;15737;49.760;6.632;2022-08-01T02:05:35;17.80;99.90
28530;DHT22;15737;49.760;6.632;2022-08-01T02:08:04;17.80;99.90
28530;DHT22;15737;49.760;6.632;2022-08-01T02:10:31;17.80;99.90
28530;DHT22;15737;49.760;6.632;2022-08-01T02:12:58;17.70;99.90
28530;DHT22;15737;49.760;6.632;2022-08-01T02:15:26;17.70;99.90
28530;DHT22;15737;49.760;6.632;2022-08-01T02:17:54;17.70;99.90
28530;DHT22;15737;49.760;6.632;2022-08-01T02:20:20;17.70;99.90
28530;DHT22;15737;49.760;6.632;2022-08-01T02:22:52;17.60;99.90
28530;DHT22;15737;49.760;6.632;2022-08-01T02:25:25;17.60;99.90
28530;DHT22;15737;49.760;6.632;2022-08-01T02:31:05;17.60;99.90
28530;DHT22;15737;49.760;6.632;2022-08-01T02:33:55;17.60;99.90
28530;DHT22;15737;49.760;6.632;2022-08-01T02:36:25;17.50;99.90
28530;DHT22;15737;49.760;6.632;2022-08-01T02:38:53;17.50;99.90
28530;DHT22;15737;49.760;6.632;2022-08-01T02:41:20;17.50;99.90
28530;DHT22;15737;49.760;6.632;2022-08-01T02:43:50;17.50;99.90
28530;DHT22;15737;49.760;6.632;2022-08-01T02:46:22;17.60;99.90
28530;DHT22;15737;49.760;6.632;2022-08-01T02:48:52;17.70;99.90
28530;DHT22;15737;49.760;6.632;2022-08-01T02:51:20;17.70;99.90
28530;DHT22;15737;49.760;6.632;2022-08-01T02:53:48;17.60;99.90
28530;DHT22;15737;49.760;6.632;2022-08-01T02:56:15;17.50;99.90
28530;DHT22;15737;49.760;6.632;2022-08-01T02:58:43;17.50;99.90
28530;DHT22;15737;49.760;6.632;2022-08-01T03:01:10;17.50;99.90
28530;DHT22;15737;49.760;6.632;2022-08-01T03:03:36;17.40;99.90
28530;DHT22;15737;49.760;6.632;2022-08-01T03:06:02;17.40;99.90
28530;DHT22;15737;49.760;6.632;2022-08-01T03:08:30;17.30;99.90
28530;DHT22;15737;49.760;6.632;2022-08-01T03:10:56;17.20;99.90
28530;DHT22;15737;49.760;6.632;2022-08-01T03:13:25;17.10;99.90
28530;DHT22;15737;49.760;6.632;2022-08-01T03:15:53;17.10;99.90
28530;DHT22;15737;49.760;6.632;2022-08-01T03:18:20;17.00;99.90
28530;DHT22;15737;49.760;6.632;2022-08-01T03:20:48;17.00;99.90
28530;DHT22;15737;49.760;6.632;2022-08-01T03:23:15;16.90;99.90
28530;DHT22;15737;49.760;6.632;2022-08-01T03:25:43;16.80;99.90
28530;DHT22;15737;49.760;6.632;2022-08-01T03:28:12;16.80;99.90
28530;DHT22;15737;49.760;6.632;2022-08-01T03:30:39;16.80;99.90
28530;DHT22;15737;49.760;6.632;2022-08-01T03:33:06;16.80;99.90
28530;DHT22;15737;49.760;6.632;2022-08-01T03:35:48;16.90;99.90
28530;DHT22;15737;49.760;6.632;2022-08-01T03:38:18;16.80;99.90
28530;DHT22;15737;49.760;6.632;2022-08-01T03:40:48;16.70;99.90
28530;DHT22;15737;49.760;6.632;2022-08-01T03:43:22;16.60;99.90
28530;DHT22;15737;49.760;6.632;2022-08-01T03:45:51;16.60;99.90
28530;DHT22;15737;49.760;6.632;2022-08-01T03:48:19;16.60;99.90
28530;DHT22;15737;49.760;6.632;2022-08-01T03:53:23;16.60;99.90
28530;DHT22;15737;49.760;6.632;2022-08-01T03:55:50;16.50;99.90
28530;DHT22;15737;49.760;6.632;2022-08-01T03:58:16;16.40;99.90
28530;DHT22;15737;49.760;6.632;2022-08-01T04:00:43;16.40;99.90
28530;DHT22;15737;49.760;6.632;2022-08-01T04:03:09;16.40;99.90
28530;DHT22;15737;49.760;6.632;2022-08-01T04:05:35;16.40;99.90
28530;DHT22;15737;49.760;6.632;2022-08-01T04:08:01;16.40;99.90
28530;DHT22;15737;49.760;6.632;2022-08-01T04:10:28;16.40;99.90
28530;DHT22;15737;49.760;6.632;2022-08-01T04:12:54;16.40;99.90
28530;DHT22;15737;49.760;6.632;2022-08-01T04:15:20;16.50;99.90
28530;DHT22;15737;49.760;6.632;2022-08-01T04:17:46;16.50;99.90
28530;DHT22;15737;49.760;6.632;2022-08-01T04:20:12;16.60;99.90
28530;DHT22;15737;49.760;6.632;2022-08-01T04:22:39;16.60;99.90
28530;DHT22;15737;49.760;6.632;2022-08-01T04:25:17;16.60;99.90
28530;DHT22;15737;49.760;6.632;2022-08-01T04:27:47;16.60;99.90
28530;DHT22;15737;49.760;6.632;2022-08-01T04:30:13;16.60;99.90
28530;DHT22;15737;49.760;6.632;2022-08-01T04:32:42;16.60;99.90
28530;DHT22;15737;49.760;6.632;2022-08-01T04:35:12;16.60;99.90
28530;DHT22;15737;49.760;6.632;2022-08-01T04:37:43;16.70;99.90
28530;DHT22;15737;49.760;6.632;2022-08-01T04:40:10;16.70;99.90
28530;DHT22;15737;49.760;6.632;2022-08-01T04:42:36;16.70;99.90
28530;DHT22;15737;49.760;6.632;2022-08-01T04:45:01;16.80;99.90
28530;DHT22;15737;49.760;6.632;2022-08-01T04:47:27;17.00;99.90
28530;DHT22;15737;49.760;6.632;2022-08-01T04:49:55;17.10;99.90
28530;DHT22;15737;49.760;6.632;2022-08-01T04:52:22;17.20;99.90
28530;DHT22;15737;49.760;6.632;2022-08-01T04:54:47;17.30;99.90
28530;DHT22;15737;49.760;6.632;2022-08-01T04:57:13;17.40;99.90
28530;DHT22;15737;49.760;6.632;2022-08-01T04:59:42;17.40;99.90
28530;DHT22;15737;49.760;6.632;2022-08-01T05:02:16;17.50;99.90
28530;DHT22;15737;49.760;6.632;2022-08-01T05:04:44;17.60;99.90
28530;DHT22;15737;49.760;6.632;2022-08-01T05:07:11;17.80;99.90
28530;DHT22;15737;49.760;6.632;2022-08-01T05:09:39;17.90;99.90
28530;DHT22;15737;49.760;6.632;2022-08-01T05:12:09;18.00;99.90
28530;DHT22;15737;49.760;6.632;2022-08-01T05:14:36;18.00;99.90
28530;DHT22;15737;49.760;6.632;2022-08-01T05:17:04;18.00;99.90
28530;DHT22;15737;49.760;6.632;2022-08-01T05:19:30;18.00;99.90
28530;DHT22;15737;49.760;6.632;2022-08-01T05:22:00;18.10;99.90
28530;DHT22;15737;49.760;6.632;2022-08-01T05:24:27;18.20;99.90
28530;DHT22;15737;49.760;6.632;2022-08-01T05:26:55;18.30;99.90
28530;DHT22;15737;49.760;6.632;2022-08-01T05:29:21;18.40;99.90
28530;DHT22;15737;49.760;6.632;2022-08-01T05:31:47;18.50;99.90
28530;DHT22;15737;49.760;6.632;2022-08-01T05:34:12;18.60;99.90
28530;DHT22;15737;49.760;6.632;2022-08-01T05:36:38;18.70;99.90
28530;DHT22;15737;49.760;6.632;2022-08-01T05:39:04;18.90;99.90
28530;DHT22;15737;49.760;6.632;2022-08-01T05:41:30;19.00;99.90
28530;DHT22;15737;49.760;6.632;2022-08-01T05:43:56;19.00;99.90
28530;DHT22;15737;49.760;6.632;2022-08-01T05:46:21;19.10;99.90
28530;DHT22;15737;49.760;6.632;2022-08-01T05:48:47;19.30;99.90
28530;DHT22;15737;49.760;6.632;2022-08-01T05:51:12;19.30;99.90
28530;DHT22;15737;49.760;6.632;2022-08-01T05:53:38;19.40;99.90
28530;DHT22;15737;49.760;6.632;2022-08-01T05:56:04;19.60;99.90
28530;DHT22;15737;49.760;6.632;2022-08-01T05:58:30;19.80;99.90
28530;DHT22;15737;49.760;6.632;2022-08-01T06:00:57;20.00;99.90
28530;DHT22;15737;49.760;6.632;2022-08-01T06:03:22;20.20;99.90
28530;DHT22;15737;49.760;6.632;2022-08-01T06:05:48;20.40;99.90
28530;DHT22;15737;49.760;6.632;2022-08-01T06:08:14;20.50;99.90
28530;DHT22;15737;49.760;6.632;2022-08-01T06:10:39;20.60;99.90
28530;DHT22;15737;49.760;6.632;2022-08-01T06:13:05;20.70;99.90
28530;DHT22;15737;49.760;6.632;2022-08-01T06:15:32;21.00;99.90
28530;DHT22;15737;49.760;6.632;2022-08-01T06:17:57;21.30;99.90
28530;DHT22;15737;49.760;6.632;2022-08-01T06:20:23;21.50;99.90
28530;DHT22;15737;49.760;6.632;2022-08-01T06:22:49;21.60;99.90
28530;DHT22;15737;49.760;6.632;2022-08-01T06:25:17;21.70;99.90
28530;DHT22;15737;49.760;6.632;2022-08-01T06:27:43;21.70;99.90
28530;DHT22;15737;49.760;6.632;2022-08-01T06:30:09;21.70;99.90
28530;DHT22;15737;49.760;6.632;2022-08-01T06:32:35;21.70;99.90
28530;DHT22;15737;49.760;6.632;2022-08-01T06:35:00;21.60;99.90
28530;DHT22;15737;49.760;6.632;2022-08-01T06:37:30;21.50;99.90
28530;DHT22;15737;49.760;6.632;2022-08-01T06:40:00;21.40;99.90
28530;DHT22;15737;49.760;6.632;2022-08-01T06:42:26;21.40;99.90
28530;DHT22;15737;49.760;6.632;2022-08-01T06:44:51;21.40;99.90
28530;DHT22;15737;49.760;6.632;2022-08-01T06:47:17;21.50;99.90
28530;DHT22;15737;49.760;6.632;2022-08-01T06:49:42;21.50;99.90
28530;DHT22;15737;49.760;6.632;2022-08-01T06:52:08;21.60;99.90
28530;DHT22;15737;49.760;6.632;2022-08-01T06:54:33;21.60;99.90
28530;DHT22;15737;49.760;6.632;2022-08-01T06:57:05;21.60;99.90
28530;DHT22;15737;49.760;6.632;2022-08-01T06:59:33;21.80;99.90
28530;DHT22;15737;49.760;6.632;2022-08-01T07:01:59;22.00;99.90
28530;DHT22;15737;49.760;6.632;2022-08-01T07:04:26;22.00;99.90
28530;DHT22;15737;49.760;6.632;2022-08-01T07:06:52;21.90;99.90
28530;DHT22;15737;49.760;6.632;2022-08-01T07:09:17;21.80;99.90
28530;DHT22;15737;49.760;6.632;2022-08-01T07:11:43;21.90;99.90
28530;DHT22;15737;49.760;6.632;2022-08-01T07:14:08;22.10;99.90
28530;DHT22;15737;49.760;6.632;2022-08-01T07:16:34;22.10;99.90
28530;DHT22;15737;49.760;6.632;2022-08-01T07:18:59;22.10;99.90
28530;DHT22;15737;49.760;6.632;2022-08-01T07:21:25;22.20;99.90
28530;DHT22;15737;49.760;6.632;2022-08-01T07:23:50;22.20;99.90
28530;DHT22;15737;49.760;6.632;2022-08-01T07:26:16;22.20;99.90
28530;DHT22;15737;49.760;6.632;2022-08-01T07:28:42;21.90;99.90
28530;DHT22;15737;49.760;6.632;2022-08-01T07:31:08;21.70;99.90
28530;DHT22;15737;49.760;6.632;2022-08-01T07:33:33;21.50;99.90
28530;DHT22;15737;49.760;6.632;2022-08-01T07:35:59;21.40;99.90
28530;DHT22;15737;49.760;6.632;2022-08-01T07:38:24;21.40;99.90
28530;DHT22;15737;49.760;6.632;2022-08-01T07:40:50;21.40;99.90
28530;DHT22;15737;49.760;6.632;2022-08-01T07:43:16;21.30;99.90
28530;DHT22;15737;49.760;6.632;2022-08-01T07:45:41;21.50;99.90
28530;DHT22;15737;49.760;6.632;2022-08-01T07:48:07;21.70;99.90
28530;DHT22;15737;49.760;6.632;2022-08-01T07:50:33;21.90;99.90
28530;DHT22;15737;49.760;6.632;2022-08-01T07:52:59;22.00;99.90
28530;DHT22;15737;49.760;6.632;2022-08-01T07:55:25;22.10;99.90
28530;DHT22;15737;49.760;6.632;2022-08-01T07:57:51;22.30;99.90
28530;DHT22;15737;49.760;6.632;2022-08-01T08:00:17;22.40;99.90
28530;DHT22;15737;49.760;6.632;2022-08-01T08:02:43;22.40;99.90
28530;DHT22;15737;49.760;6.632;2022-08-01T08:05:09;22.30;99.90
28530;DHT22;15737;49.760;6.632;2022-08-01T08:07:35;22.40;99.90
28530;DHT22;15737;49.760;6.632;2022-08-01T08:10:00;22.50;99.90
28530;DHT22;15737;49.760;6.632;2022-08-01T08:12:26;22.80;99.90
28530;DHT22;15737;49.760;6.632;2022-08-01T08:14:51;22.90;99.90
28530;DHT22;15737;49.760;6.632;2022-08-01T08:17:17;22.90;99.90
28530;DHT22;15737;49.760;6.632;2022-08-01T08:19:42;23.10;99.90
28530;DHT22;15737;49.760;6.632;2022-08-01T08:22:09;23.60;99.90
28530;DHT22;15737;49.760;6.632;2022-08-01T08:24:36;23.80;99.90
28530;DHT22;15737;49.760;6.632;2022-08-01T08:27:02;23.80;99.90
28530;DHT22;15737;49.760;6.632;2022-08-01T08:29:29;23.80;99.90
28530;DHT22;15737;49.760;6.632;2022-08-01T08:31:58;23.70;99.90
28530;DHT22;15737;49.760;6.632;2022-08-01T08:34:25;23.40;99.90
28530;DHT22;15737;49.760;6.632;2022-08-01T08:36:51;23.30;99.90
28530;DHT22;15737;49.760;6.632;2022-08-01T08:39:17;23.20;99.90
28530;DHT22;15737;49.760;6.632;2022-08-01T08:41:43;23.20;99.90
28530;DHT22;15737;49.760;6.632;2022-08-01T08:44:09;23.40;99.90
28530;DHT22;15737;49.760;6.632;2022-08-01T08:46:41;23.80;99.90
28530;DHT22;15737;49.760;6.632;2022-08-01T08:49:08;23.90;99.90
28530;DHT22;15737;49.760;6.632;2022-08-01T08:51:35;23.70;99.90
28530;DHT22;15737;49.760;6.632;2022-08-01T08:54:04;23.80;99.90
28530;DHT22;15737;49.760;6.632;2022-08-01T08:56:31;24.30;99.70
28530;DHT22;15737;49.760;6.632;2022-08-01T08:59:00;24.90;98.70
28530;DHT22;15737;49.760;6.632;2022-08-01T09:04:04;25.00;97.60
28530;DHT22;15737;49.760;6.632;2022-08-01T09:06:30;24.80;97.30
28530;DHT22;15737;49.760;6.632;2022-08-01T09:08:56;24.80;97.50
28530;DHT22;15737;49.760;6.632;2022-08-01T09:11:22;24.90;96.70
28530;DHT22;15737;49.760;6.632;2022-08-01T09:14:02;25.00;96.70
28530;DHT22;15737;49.760;6.632;2022-08-01T09:16:29;25.90;95.40
28530;DHT22;15737;49.760;6.632;2022-08-01T09:19:06;26.40;93.90
28530;DHT22;15737;49.760;6.632;2022-08-01T09:21:32;26.60;92.70
28530;DHT22;15737;49.760;6.632;2022-08-01T09:23:58;26.40;92.60
28530;DHT22;15737;49.760;6.632;2022-08-01T09:26:30;26.50;92.10
28530;DHT22;15737;49.760;6.632;2022-08-01T09:28:57;26.40;91.90
28530;DHT22;15737;49.760;6.632;2022-08-01T09:31:22;26.50;91.80
28530;DHT22;15737;49.760;6.632;2022-08-01T09:33:55;26.90;91.50
28530;DHT22;15737;49.760;6.632;2022-08-01T09:36:23;27.40;89.90
28530;DHT22;15737;49.760;6.632;2022-08-01T09:38:49;27.90;87.50
28530;DHT22;15737;49.760;6.632;2022-08-01T09:41:15;28.40;85.30
28530;DHT22;15737;49.760;6.632;2022-08-01T09:43:47;28.80;82.90
28530;DHT22;15737;49.760;6.632;2022-08-01T09:46:13;29.30;80.70
28530;DHT22;15737;49.760;6.632;2022-08-01T09:51:34;30.00;76.10
28530;DHT22;15737;49.760;6.632;2022-08-01T09:54:02;30.10;75.30
28530;DHT22;15737;49.760;6.632;2022-08-01T09:56:36;30.10;74.40
28530;DHT22;15737;49.760;6.632;2022-08-01T09:59:03;29.80;74.00
28530;DHT22;15737;49.760;6.632;2022-08-01T10:01:45;29.50;73.90
28530;DHT22;15737;49.760;6.632;2022-08-01T10:04:13;29.20;74.60
28530;DHT22;15737;49.760;6.632;2022-08-01T10:06:40;28.90;75.00
28530;DHT22;15737;49.760;6.632;2022-08-01T10:09:08;28.60;75.70
28530;DHT22;15737;49.760;6.632;2022-08-01T10:11:34;28.40;76.20
28530;DHT22;15737;49.760;6.632;2022-08-01T10:14:05;28.10;76.30
28530;DHT22;15737;49.760;6.632;2022-08-01T10:16:32;27.50;77.10
28530;DHT22;15737;49.760;6.632;2022-08-01T10:18:59;27.10;78.50
28530;DHT22;15737;49.760;6.632;2022-08-01T10:21:27;26.50;79.80
28530;DHT22;15737;49.760;6.632;2022-08-01T10:23:54;26.20;81.00
28530;DHT22;15737;49.760;6.632;2022-08-01T10:26:21;26.10;81.20
28530;DHT22;15737;49.760;6.632;2022-08-01T10:28:50;26.40;80.60
28530;DHT22;15737;49.760;6.632;2022-08-01T10:31:17;26.50;79.60
28530;DHT22;15737;49.760;6.632;2022-08-01T10:33:44;26.20;80.00
28530;DHT22;15737;49.760;6.632;2022-08-01T10:36:10;26.30;80.50
28530;DHT22;15737;49.760;6.632;2022-08-01T10:38:36;26.70;79.10
28530;DHT22;15737;49.760;6.632;2022-08-01T10:41:03;27.00;77.80
28530;DHT22;15737;49.760;6.632;2022-08-01T10:43:29;27.10;77.30
28530;DHT22;15737;49.760;6.632;2022-08-01T10:45:55;27.20;76.90
28530;DHT22;15737;49.760;6.632;2022-08-01T10:48:27;27.50;75.90
28530;DHT22;15737;49.760;6.632;2022-08-01T10:50:58;27.80;75.10
28530;DHT22;15737;49.760;6.632;2022-08-01T10:53:28;28.30;73.80
28530;DHT22;15737;49.760;6.632;2022-08-01T10:58:28;28.40;72.20
28530;DHT22;15737;49.760;6.632;2022-08-01T11:03:42;27.70;73.60
28530;DHT22;15737;49.760;6.632;2022-08-01T11:06:19;27.40;74.30
28530;DHT22;15737;49.760;6.632;2022-08-01T11:08:53;27.40;74.50
28530;DHT22;15737;49.760;6.632;2022-08-01T11:11:20;27.40;74.20
28530;DHT22;15737;49.760;6.632;2022-08-01T11:14:02;27.40;73.90
28530;DHT22;15737;49.760;6.632;2022-08-01T11:16:34;27.20;74.00
28530;DHT22;15737;49.760;6.632;2022-08-01T11:19:00;27.10;74.80
28530;DHT22;15737;49.760;6.632;2022-08-01T11:21:58;27.60;73.80
28530;DHT22;15737;49.760;6.632;2022-08-01T11:27:27;28.20;70.90
28530;DHT22;15737;49.760;6.632;2022-08-01T11:32:55;28.10;70.40
28530;DHT22;15737;49.760;6.632;2022-08-01T11:35:22;28.30;69.70
28530;DHT22;15737;49.760;6.632;2022-08-01T11:37:50;28.40;69.40
28530;DHT22;15737;49.760;6.632;2022-08-01T11:40:25;28.40;69.40
28530;DHT22;15737;49.760;6.632;2022-08-01T11:45:53;29.20;67.90
28530;DHT22;15737;49.760;6.632;2022-08-01T11:48:25;30.20;64.70
28530;DHT22;15737;49.760;6.632;2022-08-01T11:50:52;30.60;63.70
28530;DHT22;15737;49.760;6.632;2022-08-01T11:53:18;31.00;60.80
28530;DHT22;15737;49.760;6.632;2022-08-01T11:55:52;30.80;60.80
28530;DHT22;15737;49.760;6.632;2022-08-01T11:58:23;30.70;60.40
28530;DHT22;15737;49.760;6.632;2022-08-01T12:00:54;30.70;59.90
28530;DHT22;15737;49.760;6.632;2022-08-01T12:03:29;31.10;59.20
28530;DHT22;15737;49.760;6.632;2022-08-01T12:05:56;31.80;58.10
28530;DHT22;15737;49.760;6.632;2022-08-01T12:10:53;32.20;56.00
28530;DHT22;15737;49.760;6.632;2022-08-01T12:13:19;31.90;55.90
28530;DHT22;15737;49.760;6.632;2022-08-01T12:15:45;31.30;56.60
28530;DHT22;15737;49.760;6.632;2022-08-01T12:18:11;30.70;56.90
28530;DHT22;15737;49.760;6.632;2022-08-01T12:20:38;29.90;58.00
28530;DHT22;15737;49.760;6.632;2022-08-01T12:23:07;29.20;59.50
28530;DHT22;15737;49.760;6.632;2022-08-01T12:25:34;29.40;59.60
28530;DHT22;15737;49.760;6.632;2022-08-01T12:28:02;29.70;58.80
28530;DHT22;15737;49.760;6.632;2022-08-01T12:30:29;30.00;58.20
28530;DHT22;15737;49.760;6.632;2022-08-01T12:32:57;29.90;58.10
28530;DHT22;15737;49.760;6.632;2022-08-01T12:35:24;29.80;58.50
28530;DHT22;15737;49.760;6.632;2022-08-01T12:37:54;29.90;58.00
28530;DHT22;15737;49.760;6.632;2022-08-01T12:40:25;29.40;58.50
28530;DHT22;15737;49.760;6.632;2022-08-01T12:42:58;29.50;58.60
28530;DHT22;15737;49.760;6.632;2022-08-01T12:45:27;29.70;58.50
28530;DHT22;15737;49.760;6.632;2022-08-01T12:47:54;29.90;57.90
28530;DHT22;15737;49.760;6.632;2022-08-01T12:50:22;30.10;57.30
28530;DHT22;15737;49.760;6.632;2022-08-01T12:52:49;30.80;56.40
28530;DHT22;15737;49.760;6.632;2022-08-01T12:55:17;31.90;55.00
28530;DHT22;15737;49.760;6.632;2022-08-01T12:57:45;32.70;53.60
28530;DHT22;15737;49.760;6.632;2022-08-01T13:02:46;33.10;52.20
28530;DHT22;15737;49.760;6.632;2022-08-01T13:05:13;32.70;52.20
28530;DHT22;15737;49.760;6.632;2022-08-01T13:07:48;32.20;53.10
28530;DHT22;15737;49.760;6.632;2022-08-01T13:12:52;31.70;53.70
28530;DHT22;15737;49.760;6.632;2022-08-01T13:15:20;31.80;53.80
28530;DHT22;15737;49.760;6.632;2022-08-01T13:17:46;32.30;53.00
28530;DHT22;15737;49.760;6.632;2022-08-01T13:20:29;32.20;52.70
28530;DHT22;15737;49.760;6.632;2022-08-01T13:22:55;31.10;54.20
28530;DHT22;15737;49.760;6.632;2022-08-01T13:25:50;30.40;55.60
28530;DHT22;15737;49.760;6.632;2022-08-01T13:28:17;30.40;55.90
28530;DHT22;15737;49.760;6.632;2022-08-01T13:31:00;30.20;56.00
28530;DHT22;15737;49.760;6.632;2022-08-01T13:33:39;30.60;55.70
28530;DHT22;15737;49.760;6.632;2022-08-01T13:36:06;30.60;55.50
28530;DHT22;15737;49.760;6.632;2022-08-01T13:38:32;30.50;55.70
28530;DHT22;15737;49.760;6.632;2022-08-01T13:43:46;32.20;53.80
28530;DHT22;15737;49.760;6.632;2022-08-01T13:46:11;32.20;52.80
28530;DHT22;15737;49.760;6.632;2022-08-01T13:48:37;31.50;53.90
28530;DHT22;15737;49.760;6.632;2022-08-01T13:51:03;31.20;54.30
28530;DHT22;15737;49.760;6.632;2022-08-01T13:53:28;30.70;55.10
28530;DHT22;15737;49.760;6.632;2022-08-01T13:55:54;30.40;55.70
28530;DHT22;15737;49.760;6.632;2022-08-01T13:58:19;30.30;56.30
28530;DHT22;15737;49.760;6.632;2022-08-01T14:00:45;31.00;55.60
28530;DHT22;15737;49.760;6.632;2022-08-01T14:03:11;31.70;54.40
28530;DHT22;15737;49.760;6.632;2022-08-01T14:05:37;31.90;53.70
28530;DHT22;15737;49.760;6.632;2022-08-01T14:08:03;31.20;54.50
28530;DHT22;15737;49.760;6.632;2022-08-01T14:10:29;30.20;56.10
28530;DHT22;15737;49.760;6.632;2022-08-01T14:12:55;29.40;57.50
28530;DHT22;15737;49.760;6.632;2022-08-01T14:15:21;29.10;58.20
28530;DHT22;15737;49.760;6.632;2022-08-01T14:17:47;28.80;59.00
28530;DHT22;15737;49.760;6.632;2022-08-01T14:20:13;28.20;59.90
28530;DHT22;15737;49.760;6.632;2022-08-01T14:22:38;28.20;60.70
28530;DHT22;15737;49.760;6.632;2022-08-01T14:25:06;28.60;59.90
28530;DHT22;15737;49.760;6.632;2022-08-01T14:27:31;29.50;58.90
28530;DHT22;15737;49.760;6.632;2022-08-01T14:30:01;30.50;57.20
28530;DHT22;15737;49.760;6.632;2022-08-01T14:32:27;30.70;56.50
28530;DHT22;15737;49.760;6.632;2022-08-01T14:34:52;31.30;56.20
28530;DHT22;15737;49.760;6.632;2022-08-01T14:37:18;31.90;55.50
28530;DHT22;15737;49.760;6.632;2022-08-01T14:39:44;32.30;54.50
28530;DHT22;15737;49.760;6.632;2022-08-01T14:42:09;31.80;54.50
28530;DHT22;15737;49.760;6.632;2022-08-01T14:44:35;31.20;55.10
28530;DHT22;15737;49.760;6.632;2022-08-01T14:47:00;30.60;55.70
28530;DHT22;15737;49.760;6.632;2022-08-01T14:49:26;29.90;56.60
28530;DHT22;15737;49.760;6.632;2022-08-01T14:51:51;29.00;58.20
28530;DHT22;15737;49.760;6.632;2022-08-01T14:54:17;28.50;59.30
28530;DHT22;15737;49.760;6.632;2022-08-01T14:56:42;28.50;59.50
28530;DHT22;15737;49.760;6.632;2022-08-01T14:59:08;28.60;59.00
28530;DHT22;15737;49.760;6.632;2022-08-01T15:01:33;28.40;59.30
28530;DHT22;15737;49.760;6.632;2022-08-01T15:03:59;28.50;59.20
28530;DHT22;15737;49.760;6.632;2022-08-01T15:06:24;28.50;59.10
28530;DHT22;15737;49.760;6.632;2022-08-01T15:08:50;28.90;58.80
28530;DHT22;15737;49.760;6.632;2022-08-01T15:11:15;29.30;58.30
28530;DHT22;15737;49.760;6.632;2022-08-01T15:13:41;29.00;58.60
28530;DHT22;15737;49.760;6.632;2022-08-01T15:16:16;28.70;59.30
28530;DHT22;15737;49.760;6.632;2022-08-01T15:18:42;28.60;59.80
28530;DHT22;15737;49.760;6.632;2022-08-01T15:21:12;28.70;59.70
28530;DHT22;15737;49.760;6.632;2022-08-01T15:23:43;28.60;59.70
28530;DHT22;15737;49.760;6.632;2022-08-01T15:26:16;28.60;59.90
28530;DHT22;15737;49.760;6.632;2022-08-01T15:28:45;28.70;59.70
28530;DHT22;15737;49.760;6.632;2022-08-01T15:31:11;28.80;59.60
28530;DHT22;15737;49.760;6.632;2022-08-01T15:33:38;28.80;59.60
28530;DHT22;15737;49.760;6.632;2022-08-01T15:36:04;28.80;59.60
28530;DHT22;15737;49.760;6.632;2022-08-01T15:38:30;28.50;59.90
28530;DHT22;15737;49.760;6.632;2022-08-01T15:40:55;28.40;60.50
28530;DHT22;15737;49.760;6.632;2022-08-01T15:43:21;28.50;60.60
28530;DHT22;15737;49.760;6.632;2022-08-01T15:45:47;28.40;60.90
28530;DHT22;15737;49.760;6.632;2022-08-01T15:48:12;28.10;61.60
28530;DHT22;15737;49.760;6.632;2022-08-01T15:50:38;27.70;62.90
28530;DHT22;15737;49.760;6.632;2022-08-01T15:53:04;27.50;63.60
28530;DHT22;15737;49.760;6.632;2022-08-01T15:55:31;27.20;64.30
28530;DHT22;15737;49.760;6.632;2022-08-01T15:57:56;27.00;64.70
28530;DHT22;15737;49.760;6.632;2022-08-01T16:00:22;27.00;64.80
28530;DHT22;15737;49.760;6.632;2022-08-01T16:02:47;27.40;64.30
28530;DHT22;15737;49.760;6.632;2022-08-01T16:05:13;27.70;63.60
28530;DHT22;15737;49.760;6.632;2022-08-01T16:07:39;27.90;62.90
28530;DHT22;15737;49.760;6.632;2022-08-01T16:10:06;27.70;63.10
28530;DHT22;15737;49.760;6.632;2022-08-01T16:12:31;27.40;64.20
28530;DHT22;15737;49.760;6.632;2022-08-01T16:14:57;27.50;64.10